.
WxDataArchive / Data Records for 2015-09-13
2015-09-12 September 2015 2015-09-14

Data Records for Sunday, 13 September 2015

Time	Temp	Chill	HIndex	Humid	Dewpt	 Wind 	HiWind	WindDir	Rain 	Barom 
-----	----	-----	------	-----	-----	------	------	-------	-----	----- 
00:00	54.8	54.8	54.8	80	48.7	0	0	---	0.00	29.946 
00:05	54.8	54.8	54.8	80	48.7	0	0	---	0.00	29.946 
00:10	54.7	54.7	54.7	80	48.7	0	0	---	0.00	29.946 
00:15	54.7	54.7	54.7	80	48.7	0	0	---	0.00	29.944 
00:20	54.7	54.7	54.7	80	48.7	0	0	---	0.00	29.944 
00:25	54.5	54.5	54.5	81	48.8	0	0	---	0.00	29.944 
00:30	54.5	54.5	54.5	81	48.8	0	0	---	0.00	29.943 
00:35	54.4	54.4	54.4	81	48.7	0	0	---	0.00	29.943 
00:40	54.1	54.1	54.1	82	48.7	0	0	---	0.00	29.943 
00:45	53.9	53.9	53.9	82	48.5	0	0	---	0.00	29.945 
00:50	53.8	53.8	53.8	82	48.4	0	0	---	0.00	29.945 
00:55	53.6	53.6	53.6	82	48.2	0	0	---	0.00	29.945 
01:00	53.5	53.5	53.5	82	48.1	0	0	---	0.00	29.945 
01:05	53.2	53.2	53.2	83	48.2	0	0	---	0.00	29.945 
01:10	53.1	53.1	53.1	83	48.1	0	0	---	0.00	29.945 
01:15	52.8	52.8	52.8	84	48.1	0	0	---	0.00	29.943 
01:20	52.6	52.6	52.6	84	47.9	0	0	---	0.00	29.943 
01:25	52.3	52.3	52.3	85	47.9	0	0	---	0.00	29.943 
01:30	52.3	52.3	52.3	85	47.9	0	0	---	0.00	29.942 
01:35	52.0	52.0	52.0	85	47.6	0	0	---	0.00	29.942 
01:40	51.9	51.9	51.9	85	47.5	0	0	---	0.00	29.942 
01:45	51.7	51.7	51.7	86	47.6	0	0	---	0.00	29.942 
01:50	51.6	51.6	51.6	86	47.5	0	0	---	0.00	29.942 
01:55	51.4	51.4	51.4	86	47.4	0	0	---	0.00	29.942 
02:00	51.3	51.3	51.3	86	47.3	0	0	---	0.00	29.947 
02:05	51.1	51.1	51.1	87	47.4	0	0	---	0.00	29.947 
02:10	50.8	50.8	50.8	87	47.1	0	0	---	0.00	29.947 
02:15	50.7	50.7	50.7	87	47.0	0	0	---	0.00	29.946 
02:20	50.5	50.5	50.5	88	47.1	0	0	---	0.00	29.946 
02:25	50.4	50.4	50.4	88	47.0	0	0	---	0.00	29.946 
02:30	50.2	50.2	50.2	88	46.8	0	0	---	0.00	29.948 
02:35	50.1	50.1	50.1	88	46.7	0	0	---	0.00	29.948 
02:40	49.9	49.9	49.9	89	46.8	0	0	---	0.00	29.948 
02:45	49.8	49.8	49.8	89	46.7	0	0	---	0.00	29.949 
02:50	49.6	49.6	49.6	89	46.5	0	0	---	0.00	29.949 
02:55	49.5	49.5	49.5	90	46.7	0	0	---	0.00	29.949 
03:00	49.5	49.5	49.5	90	46.7	0	0	---	0.00	29.947 
03:05	49.4	49.4	49.4	90	46.6	0	0	---	0.00	29.947 
03:10	49.2	49.2	49.2	90	46.4	0	0	---	0.00	29.947 
03:15	49.1	49.1	49.1	91	46.6	0	0	---	0.00	29.945 
03:20	49.1	49.1	49.1	91	46.6	0	0	---	0.00	29.945 
03:25	48.9	48.9	48.9	91	46.4	0	0	---	0.00	29.945 
03:30	48.9	48.9	48.9	91	46.4	0	0	---	0.00	29.941 
03:35	48.8	48.8	48.8	91	46.3	0	0	---	0.00	29.941 
03:40	48.8	48.8	48.8	92	46.6	0	0	---	0.00	29.941 
03:45	48.8	48.8	48.8	92	46.6	0	0	---	0.00	29.940 
03:50	48.8	48.8	48.8	92	46.6	0	0	---	0.00	29.940 
03:55	48.6	48.6	48.6	92	46.4	0	0	---	0.00	29.940 
04:00	48.6	48.6	48.6	92	46.4	0	0	---	0.00	29.937 
04:05	48.5	48.5	48.5	92	46.3	0	0	---	0.00	29.937 
04:10	48.3	48.3	48.3	92	46.1	0	0	---	0.00	29.937 
04:15	48.2	48.2	48.2	92	46.0	0	0	---	0.00	29.942 
04:20	48.2	48.2	48.2	92	46.0	0	0	---	0.00	29.942 
04:25	48.0	48.0	48.0	92	45.8	0	0	---	0.00	29.942 
04:30	48.0	48.0	48.0	92	45.8	0	0	---	0.00	29.944 
04:35	48.0	48.0	48.0	92	45.8	0	0	---	0.00	29.944 
04:40	48.0	48.0	48.0	92	45.8	0	0	---	0.00	29.944 
04:45	48.0	48.0	48.0	92	45.8	0	0	---	0.00	29.946 
04:50	48.0	48.0	48.0	92	45.8	0	0	---	0.00	29.946 
04:55	48.0	48.0	48.0	92	45.8	0	0	---	0.00	29.946 
05:00	48.0	48.0	48.0	92	45.8	0	0	---	0.00	29.944 
05:05	47.9	47.9	47.9	92	45.7	0	0	---	0.00	29.944 
05:10	47.7	47.7	47.7	92	45.5	0	0	---	0.00	29.944 
05:15	47.6	47.6	47.6	92	45.4	0	0	---	0.00	29.952 
05:20	47.6	47.6	47.6	92	45.4	0	0	---	0.00	29.952 
05:25	47.6	47.6	47.6	92	45.4	0	0	---	0.00	29.952 
05:30	47.6	47.6	47.6	92	45.4	0	0	---	0.00	29.951 
05:35	47.4	47.4	47.4	92	45.2	0	0	---	0.00	29.951 
05:40	47.4	47.4	47.4	92	45.2	0	0	---	0.00	29.951 
05:45	47.6	47.6	47.6	92	45.4	0	1	112	0.00	29.954 
05:50	47.6	47.6	47.6	92	45.4	0	1	112	0.00	29.954 
05:55	47.6	47.6	47.6	92	45.4	0	1	112	0.00	29.954 
06:00	47.6	47.6	47.6	92	45.4	0	1	112	0.00	29.954 
06:05	47.6	47.6	47.6	92	45.4	0	1	112	0.00	29.954 
06:10	47.4	47.4	47.4	92	45.2	0	0	---	0.00	29.954 
06:15	47.4	47.4	47.4	92	45.2	0	1	112	0.00	29.955 
06:20	47.4	47.4	47.4	92	45.2	0	1	112	0.00	29.955 
06:25	47.4	47.4	47.4	92	45.2	0	1	112	0.00	29.955 
06:30	47.3	47.3	47.3	92	45.1	0	1	112	0.00	29.958 
06:35	47.3	47.3	47.3	91	44.8	0	1	112	0.00	29.958 
06:40	47.3	47.3	47.3	91	44.8	0	2	112	0.00	29.958 
06:45	47.1	47.1	47.1	91	44.6	0	0	---	0.00	29.966 
06:50	47.1	47.1	47.1	91	44.6	0	1	112	0.00	29.966 
06:55	47.1	47.1	47.1	91	44.6	0	1	112	0.00	29.966 
07:00	47.0	47.0	47.0	91	44.5	0	1	112	0.00	29.969 
07:05	47.0	47.0	47.0	91	44.5	0	1	112	0.00	29.969 
07:10	47.0	47.0	47.0	91	44.5	0	1	112	0.00	29.969 
07:15	47.0	47.0	47.0	91	44.5	0	1	112	0.00	29.971 
07:20	47.0	47.0	47.0	91	44.5	0	1	112	0.00	29.971 
07:25	46.8	46.8	46.8	91	44.3	0	0	---	0.00	29.971 
07:30	46.8	46.8	46.8	91	44.3	0	1	112	0.00	29.974 
07:35	46.8	46.8	46.8	91	44.3	0	1	112	0.00	29.974 
07:40	46.8	46.8	46.8	91	44.3	0	1	338	0.00	29.974 
07:45	46.8	46.8	46.8	91	44.3	0	1	338	0.00	29.982 
07:50	47.0	47.0	47.0	91	44.5	0	1	338	0.00	29.982 
07:55	47.0	47.0	47.0	91	44.5	0	1	338	0.00	29.982 
08:00	47.1	47.1	47.1	90	44.3	0	1	338	0.00	29.986 
08:05	47.1	47.1	47.1	90	44.3	0	1	338	0.00	29.986 
08:10	47.4	47.4	47.4	90	44.6	0	1	338	0.00	29.986 
08:15	47.6	47.6	47.6	90	44.8	0	2	338	0.00	29.988 
08:20	47.9	47.9	47.9	90	45.1	0	2	338	0.00	29.988 
08:25	48.2	48.2	48.2	89	45.1	0	1	338	0.00	29.988 
08:30	48.5	48.5	48.5	89	45.4	0	2	338	0.00	29.995 
08:35	48.8	48.8	48.8	88	45.4	0	2	338	0.00	29.995 
08:40	49.1	49.1	49.1	87	45.4	0	2	338	0.00	29.995 
08:45	49.5	49.5	49.5	86	45.5	1	4	338	0.00	30.000 
08:50	49.8	49.8	49.8	85	45.5	0	2	338	0.00	30.000 
08:55	50.1	50.1	50.1	84	45.5	0	2	338	0.00	30.000 
09:00	50.4	50.4	50.4	84	45.7	1	3	338	0.00	30.002 
09:05	50.8	50.8	50.8	82	45.5	0	3	338	0.00	30.002 
09:10	51.1	51.1	51.1	81	45.5	1	2	338	0.00	30.002 
09:15	51.4	51.4	51.4	80	45.4	1	3	338	0.00	30.007 
09:20	51.9	51.9	51.9	80	45.9	0	2	338	0.00	30.007 
09:25	52.3	52.3	52.3	78	45.6	0	3	338	0.00	30.007 
09:30	52.9	52.9	52.9	77	45.9	1	3	338	0.00	30.013 
09:35	53.3	53.3	53.3	76	45.9	0	2	338	0.00	30.013 
09:40	53.6	53.6	53.6	74	45.5	1	3	338	0.00	30.013 
09:45	54.2	54.2	54.2	72	45.4	1	3	315	0.00	30.010 
09:50	54.7	54.7	54.7	72	45.9	0	1	315	0.00	30.010 
09:55	55.3	55.3	55.3	71	46.1	0	2	315	0.00	30.010 
10:00	55.7	55.7	55.7	69	45.7	1	4	292	0.00	30.011 
10:05	56.0	56.0	56.0	66	44.8	1	3	292	0.00	30.011 
10:10	56.3	56.3	56.3	62	43.4	1	4	292	0.00	30.011 
10:15	56.7	56.7	56.7	62	43.8	0	3	292	0.00	30.011 
10:20	57.3	57.3	57.3	62	44.4	0	2	292	0.00	30.011 
10:25	58.0	58.0	58.0	60	44.2	1	4	292	0.00	30.011 
10:30	58.4	58.4	58.4	58	43.7	1	3	292	0.00	30.012 
10:35	58.7	58.7	58.7	58	44.0	1	3	292	0.00	30.012 
10:40	59.0	59.0	59.0	58	44.2	1	3	292	0.00	30.012 
10:45	59.8	59.8	59.8	59	45.4	0	1	292	0.00	30.010 
10:50	60.5	60.5	60.5	56	44.7	0	2	292	0.00	30.010 
10:55	61.0	61.0	61.0	55	44.7	1	3	292	0.00	30.010 
11:00	60.9	60.9	60.9	55	44.6	1	6	90	0.00	30.010 
11:05	60.9	60.9	60.9	55	44.6	1	4	90	0.00	30.010 
11:10	61.3	61.3	61.3	55	45.0	1	4	90	0.00	30.010 
11:15	61.3	61.3	61.3	54	44.5	1	3	315	0.00	30.012 
11:20	61.5	61.5	61.5	54	44.7	1	4	315	0.00	30.012 
11:25	61.8	61.8	61.8	55	45.5	1	3	315	0.00	30.012 
11:30	62.0	62.0	62.0	55	45.6	1	3	315	0.00	30.010 
11:35	62.1	62.1	62.1	53	44.8	2	4	315	0.00	30.010 
11:40	61.8	61.8	61.8	53	44.5	1	3	315	0.00	30.010 
11:45	61.5	61.5	61.5	55	45.2	0	3	315	0.00	30.008 
11:50	61.5	61.5	61.5	53	44.2	1	4	315	0.00	30.008 
11:55	61.3	61.3	61.3	54	44.5	0	2	315	0.00	30.008 
12:00	61.2	61.2	61.2	55	44.9	0	2	315	0.00	30.007 
12:05	61.0	61.0	61.0	55	44.7	1	3	315	0.00	30.007 
12:10	61.5	61.5	61.5	54	44.7	1	4	315	0.00	30.007 
12:15	61.8	61.8	61.8	54	45.0	0	2	270	0.00	30.007 
12:20	61.8	61.8	61.8	53	44.5	2	5	270	0.00	30.007 
12:25	61.8	61.8	61.8	54	45.0	1	3	270	0.00	30.007 
12:30	62.4	62.4	62.4	54	45.5	1	5	270	0.00	30.005 
12:35	62.6	62.6	62.6	54	45.7	2	5	292	0.00	30.005 
12:40	62.9	62.9	62.9	54	46.0	2	7	338	0.00	30.005 
12:45	62.7	62.7	62.7	53	45.3	1	4	338	0.00	30.005 
12:50	62.9	62.9	62.9	54	46.0	2	6	315	0.00	30.005 
12:55	62.6	62.6	62.6	54	45.7	2	4	270	0.00	30.005 
13:00	62.6	62.6	62.6	53	45.2	1	4	270	0.00	29.997 
13:05	63.1	63.1	63.1	54	46.2	2	5	270	0.00	29.997 
13:10	63.9	63.9	63.9	53	46.4	1	3	315	0.00	29.997 
13:15	64.3	64.3	64.3	52	46.3	2	5	270	0.00	29.996 
13:20	64.0	64.0	64.0	50	45.0	3	5	270	0.00	29.996 
13:25	63.2	63.2	63.2	53	45.8	2	5	292	0.00	29.996 
13:30	63.7	63.7	63.7	53	46.2	2	4	270	0.00	29.996 
13:35	63.9	63.9	63.9	52	45.9	1	4	338	0.00	29.996 
13:40	63.7	63.7	63.7	53	46.2	1	4	338	0.00	29.996 
13:45	63.4	63.4	63.4	52	45.5	2	5	270	0.00	29.993 
13:50	63.5	63.5	63.5	51	45.0	2	4	292	0.00	29.993 
13:55	63.9	63.9	63.9	50	44.9	2	5	315	0.00	29.993 
14:00	64.7	64.7	64.7	46	43.4	3	6	292	0.00	29.991 
14:05	64.8	64.8	64.8	44	42.4	4	7	270	0.00	29.991 
14:10	64.2	64.2	64.2	46	43.0	2	6	292	0.00	29.991 
14:15	64.3	64.3	64.3	47	43.6	2	4	270	0.00	29.994 
14:20	65.2	65.2	65.2	48	45.0	1	4	270	0.00	29.994 
14:25	65.5	65.5	65.5	46	44.2	2	4	270	0.00	29.994 
14:30	65.3	65.3	65.3	46	44.0	2	6	270	0.00	29.993 
14:35	65.2	65.2	65.2	44	42.7	2	4	292	0.00	29.993 
14:40	65.0	65.0	65.0	45	43.1	2	5	292	0.00	29.993 
14:45	65.0	65.0	65.0	46	43.7	2	5	292	0.00	29.991 
14:50	64.8	64.8	64.8	45	43.0	2	5	315	0.00	29.991 
14:55	64.7	64.7	64.7	47	44.0	1	4	315	0.00	29.991 
15:00	64.5	64.5	64.5	46	43.3	2	5	315	0.00	29.988 
15:05	65.2	65.2	65.2	47	44.5	2	4	315	0.00	29.988 
15:10	65.5	65.5	65.5	46	44.2	1	3	315	0.00	29.988 
15:15	65.2	65.2	65.2	46	43.9	1	4	315	0.00	29.986 
15:20	65.0	65.0	65.0	46	43.7	1	3	315	0.00	29.986 
15:25	65.5	65.5	65.5	46	44.2	2	4	315	0.00	29.986 
15:30	66.1	66.1	66.1	46	44.7	2	5	270	0.00	29.983 
15:35	66.3	66.3	66.3	45	44.3	1	4	270	0.00	29.983 
15:40	66.4	66.4	66.4	46	45.0	0	2	270	0.00	29.983 
15:45	66.8	66.8	66.8	46	45.3	1	4	270	0.00	29.976 
15:50	66.3	66.3	66.3	47	45.5	1	4	270	0.00	29.976 
15:55	65.8	65.8	65.8	46	44.4	2	5	270	0.00	29.976 
16:00	65.5	65.5	65.5	46	44.2	1	6	292	0.00	29.978 
16:05	65.3	65.3	65.3	48	45.1	0	2	292	0.00	29.978 
16:10	65.2	65.2	65.2	48	45.0	1	5	292	0.00	29.978 
16:15	65.0	65.0	65.0	49	45.4	0	4	292	0.00	29.978 
16:20	65.5	65.5	65.5	48	45.3	1	4	292	0.00	29.978 
16:25	65.6	65.6	65.6	47	44.8	1	4	292	0.00	29.978 
16:30	65.6	65.6	65.6	48	45.4	1	3	292	0.00	29.976 
16:35	65.6	65.6	65.6	47	44.8	1	4	292	0.00	29.976 
16:40	65.6	65.6	65.6	47	44.8	1	3	292	0.00	29.976 
16:45	65.8	65.8	65.8	46	44.4	1	5	292	0.00	29.975 
16:50	66.1	66.1	66.1	46	44.7	2	6	338	0.00	29.975 
16:55	66.6	66.6	66.6	45	44.6	2	5	270	0.00	29.975 
17:00	66.4	66.4	66.4	44	43.8	1	4	292	0.00	29.975 
17:05	65.8	65.8	65.8	45	43.9	1	4	292	0.00	29.975 
17:10	65.6	65.6	65.6	47	44.8	1	3	292	0.00	29.975 
17:15	66.3	66.3	66.3	47	45.5	1	4	292	0.00	29.976 
17:20	66.3	66.3	66.3	47	45.5	1	3	292	0.00	29.976 
17:25	66.1	66.1	66.1	46	44.7	2	4	292	0.00	29.976 
17:30	66.1	66.1	66.1	47	45.3	0	2	292	0.00	29.974 
17:35	66.0	66.0	66.0	45	44.0	0	3	292	0.00	29.974 
17:40	65.8	65.8	65.8	46	44.4	0	2	292	0.00	29.974 
17:45	66.0	66.0	66.0	45	44.0	0	3	292	0.00	29.969 
17:50	66.6	66.6	66.6	45	44.6	1	3	292	0.00	29.969 
17:55	67.1	67.1	67.1	42	43.2	1	4	292	0.00	29.969 
18:00	67.3	67.3	67.3	41	42.8	3	5	292	0.00	29.971 
18:05	67.1	67.1	67.1	41	42.6	1	3	292	0.00	29.971 
18:10	66.9	66.9	66.9	44	44.3	0	2	292	0.00	29.971 
18:15	66.8	66.8	66.8	41	42.3	2	4	292	0.00	29.967 
18:20	66.6	66.6	66.6	42	42.8	1	4	292	0.00	29.967 
18:25	66.6	66.6	66.6	43	43.4	0	2	292	0.00	29.967 
18:30	66.6	66.6	66.6	42	42.8	1	3	292	0.00	29.969 
18:35	66.4	66.4	66.4	42	42.6	0	3	292	0.00	29.969 
18:40	66.4	66.4	66.4	44	43.8	1	3	292	0.00	29.969 
18:45	66.3	66.3	66.3	42	42.5	0	2	292	0.00	29.971 
18:50	66.3	66.3	66.3	43	43.1	0	3	292	0.00	29.971 
18:55	66.1	66.1	66.1	43	42.9	0	3	292	0.00	29.971 
19:00	66.1	66.1	66.1	42	42.3	1	4	292	0.00	29.975 
19:05	66.0	66.0	66.0	42	42.2	0	2	292	0.00	29.975 
19:10	65.8	65.8	65.8	42	42.1	1	3	292	0.00	29.975 
19:15	65.6	65.6	65.6	43	42.5	0	1	292	0.00	29.979 
19:20	65.5	65.5	65.5	44	43.0	0	1	292	0.00	29.979 
19:25	65.3	65.3	65.3	43	42.2	0	2	292	0.00	29.979 
19:30	65.0	65.0	65.0	44	42.6	0	2	292	0.00	29.982 
19:35	64.7	64.7	64.7	45	42.9	0	1	292	0.00	29.982 
19:40	64.3	64.3	64.3	45	42.5	0	1	292	0.00	29.982 
19:45	64.0	64.0	64.0	46	42.8	0	1	292	0.00	29.984 
19:50	63.7	63.7	63.7	46	42.5	0	1	292	0.00	29.984 
19:55	63.4	63.4	63.4	46	42.3	0	0	---	0.00	29.984 
20:00	63.1	63.1	63.1	48	43.1	0	0	---	0.00	29.986 
20:05	62.6	62.6	62.6	49	43.2	0	0	---	0.00	29.986 
20:10	62.1	62.1	62.1	50	43.2	0	0	---	0.00	29.986 
20:15	61.6	61.6	61.6	51	43.3	0	0	---	0.00	29.988 
20:20	61.3	61.3	61.3	53	44.0	0	0	---	0.00	29.988 
20:25	60.9	60.9	60.9	53	43.7	0	0	---	0.00	29.988 
20:30	60.2	60.2	60.2	54	43.5	0	0	---	0.00	29.993 
20:35	59.6	59.6	59.6	56	43.9	0	0	---	0.00	29.993 
20:40	59.2	59.2	59.2	58	44.4	0	0	---	0.00	29.993 
20:45	58.4	58.4	58.4	59	44.1	0	0	---	0.00	29.997 
20:50	57.8	57.8	57.8	60	44.0	0	0	---	0.00	29.997 
20:55	57.3	57.3	57.3	62	44.4	0	0	---	0.00	29.997 
21:00	56.9	56.9	56.9	63	44.4	0	0	---	0.00	30.001 
21:05	56.5	56.5	56.5	65	44.9	0	0	---	0.00	30.001 
21:10	56.0	56.0	56.0	65	44.4	0	0	---	0.00	30.001 
21:15	55.7	55.7	55.7	66	44.5	0	0	---	0.00	30.002 
21:20	55.3	55.3	55.3	67	44.5	0	0	---	0.00	30.002 
21:25	55.0	55.0	55.0	67	44.2	0	0	---	0.00	30.002 
21:30	54.7	54.7	54.7	68	44.3	0	0	---	0.00	30.008 
21:35	54.5	54.5	54.5	69	44.5	0	0	---	0.00	30.008 
21:40	54.2	54.2	54.2	71	45.0	0	0	---	0.00	30.008 
21:45	54.1	54.1	54.1	72	45.3	0	0	---	0.00	30.010 
21:50	53.8	53.8	53.8	73	45.3	0	0	---	0.00	30.010 
21:55	53.6	53.6	53.6	73	45.2	0	0	---	0.00	30.010 
22:00	53.3	53.3	53.3	74	45.2	0	0	---	0.00	30.013 
22:05	52.9	52.9	52.9	75	45.2	0	0	---	0.00	30.013 
22:10	52.8	52.8	52.8	76	45.4	0	0	---	0.00	30.013 
22:15	52.5	52.5	52.5	77	45.5	0	0	---	0.00	30.010 
22:20	52.3	52.3	52.3	77	45.3	0	0	---	0.00	30.010 
22:25	52.0	52.0	52.0	77	45.0	0	0	---	0.00	30.010 
22:30	51.9	51.9	51.9	78	45.3	0	0	---	0.00	30.012 
22:35	51.7	51.7	51.7	79	45.4	0	0	---	0.00	30.012 
22:40	51.6	51.6	51.6	79	45.3	0	0	---	0.00	30.012 
22:45	51.3	51.3	51.3	80	45.3	0	0	---	0.00	30.012 
22:50	51.1	51.1	51.1	81	45.5	0	0	---	0.00	30.012 
22:55	51.0	51.0	51.0	81	45.4	0	0	---	0.00	30.012 
23:00	50.8	50.8	50.8	81	45.2	0	0	---	0.00	30.013 
23:05	50.7	50.7	50.7	81	45.1	0	0	---	0.00	30.013 
23:10	50.5	50.5	50.5	82	45.2	0	0	---	0.00	30.013 
23:15	50.4	50.4	50.4	82	45.1	0	0	---	0.00	30.017 
23:20	50.2	50.2	50.2	83	45.2	0	0	---	0.00	30.017 
23:25	50.1	50.1	50.1	83	45.1	0	0	---	0.00	30.017 
23:30	50.1	50.1	50.1	84	45.5	0	0	---	0.00	30.017 
23:35	49.9	49.9	49.9	84	45.3	0	0	---	0.00	30.017 
23:40	49.8	49.8	49.8	85	45.5	0	0	---	0.00	30.017 
23:45	49.6	49.6	49.6	85	45.3	0	0	---	0.00	30.017 
23:50	49.6	49.6	49.6	85	45.3	0	0	---	0.00	30.017 
23:55	49.5	49.5	49.5	85	45.2	0	0	---	0.00	30.017 

CoCoRaHS
IN-AL-39
A2 Web Hosting
Creative Commons License
GoDaddy
search engine by freefind advanced

loaded 2018-11-20 06:46:46 • last modified 2010-11-18 10:43:29
Privacy PolicyDisclaimer
• wx.awcolley.com is powered by PmWiki v.2002016 •
• all content (unless otherwise noted) © 2018 A W Colley